Langhorne, Pennsylvania
Current Conditions -  °F | °C
As of 6:54 PM on Sunday 21 Dec 2014 (Local Time) from KPNE Reporting Station
Clear Clear  
Wind Chill: 31°   Ceiling: Unl
Heat Index: 31°   Visibility: 10mi
Dew Point: 20°   Wind: 0mph
Humidity: 64%   Direction: NA
Pressure: 30.36"   Gusts: NA
Location:  40.18°N, 74.92°W
Report Text: KPNE 212354Z AUTO 00000KT 10SM CLR M01/M07 A3036 RMK AO2 SLP282 T10061067 10050 21006 51018 TSNO
Loading
Personal Weather Stations






























Interactive Weather Map New forecast layout! Learn more

10-Day Weather Forecast

Advertisements
Track Severe Weather on mobile